Terminal Aerodrome Forecast
Issued by NWS

Home | Current Version | Previous Version | Text Only | Print | Product List | Glossary On
Versions: 1 2 3 4 5 6 7 8 9 10 11 12
000
FTUS46 KHNX 061726
TAFBFL
TAF
KBFL 061726Z 0618/0718 34010KT P6SM SKC
     FM062100 30012G19KT P6SM FEW250
     FM070900 34007KT P6SM FEW070 SCT120
     FM071500 34009KT P6SM BKN070=

USA.gov is the U.S. government's official web portal to all federal, state and local government web resources and services.